Time;durP1;ratioP1;P1;durP2;ratioP2;P2;SDS_P1;SDS_P2;PMS_P1;PMS_P2;Temp;Humidity;BMP_temperature;BMP_pressure;BME280_temperature;BME280_humidity;BME280_pressure;Samples;Min_cycle;Max_cycle;Signal;HPM_P1;HPM_P2
2022/01/15 00:01:38;;;;;;;6.53;1.05;;;;;;;;;;5056783;28;20032;-65
2022/01/15 00:04:05;;;;;;;8.35;0.90;;;;;;;;;;5055526;28;20135;-66
2022/01/15 00:06:33;;;;;;;7.90;1.17;;;;;;;;;;5056743;28;20122;-67
2022/01/15 00:09:05;;;;;;;13.38;1.00;;;;;;;;;;5056558;28;20021;-67
2022/01/15 00:11:34;;;;;;;7.22;0.88;;;;;;;;;;5056500;28;20044;-66
2022/01/15 00:14:14;;;;;;;3.63;0.88;;;;;;;;;;5056759;28;20048;-66
2022/01/15 00:16:56;;;;;;;6.82;0.50;;;;;;;;;;5056669;28;20410;-66
2022/01/15 00:19:36;;;;;;;7.43;0.82;;;;;;;;;;5056378;28;20100;-67
2022/01/15 00:22:06;;;;;;;14.85;0.93;;;;;;;;;;5056356;28;20064;-65
2022/01/15 00:24:34;;;;;;;15.45;0.75;;;;;;;;;;5056243;28;20365;-66
2022/01/15 00:27:01;;;;;;;92.65;6.63;;;;;;;;;;5056219;28;20047;-65
2022/01/15 00:29:30;;;;;;;9.20;1.25;;;;;;;;;;5056140;28;20124;-67
2022/01/15 00:31:58;;;;;;;12.40;1.77;;;;;;;;;;5054970;28;20414;-66
2022/01/15 00:34:26;;;;;;;15.55;1.42;;;;;;;;;;5056141;28;20393;-65
2022/01/15 00:36:53;;;;;;;4.57;0.70;;;;;;;;;;5056041;28;20029;-66
2022/01/15 00:39:21;;;;;;;18.13;3.50;;;;;;;;;;5055908;28;20104;-66
2022/01/15 00:41:48;;;;;;;15.75;3.05;;;;;;;;;;5056471;28;20059;-66
2022/01/15 00:44:16;;;;;;;13.88;1.88;;;;;;;;;;5055921;28;20035;-66
2022/01/15 00:46:44;;;;;;;12.50;0.85;;;;;;;;;;5055855;28;20021;-66
2022/01/15 00:49:12;;;;;;;7.78;0.63;;;;;;;;;;5055911;28;20021;-66
2022/01/15 00:51:39;;;;;;;11.07;0.85;;;;;;;;;;5055698;28;20045;-67
2022/01/15 00:54:05;;;;;;;8.70;1.15;;;;;;;;;;5056002;28;20072;-67
2022/01/15 00:56:32;;;;;;;7.25;1.10;;;;;;;;;;5055800;28;20044;-67
2022/01/15 00:59:00;;;;;;;8.60;1.40;;;;;;;;;;5055766;28;20355;-69
2022/01/15 01:01:28;;;;;;;19.67;4.55;;;;;;;;;;5055954;28;20021;-67
2022/01/15 01:03:55;;;;;;;13.57;5.80;;;;;;;;;;5054797;28;20322;-67
2022/01/15 01:06:23;;;;;;;42.40;5.90;;;;;;;;;;5054354;28;20025;-67
2022/01/15 01:08:51;;;;;;;21.90;7.07;;;;;;;;;;5055508;28;20017;-66
2022/01/15 01:11:29;;;;;;;36.95;6.60;;;;;;;;;;5054552;28;20418;-67
2022/01/15 01:24:55;;;;;;;5.38;1.90;;;;;;;;;;5055586;28;20059;-66
2022/01/15 01:27:30;;;;;;;25.85;4.85;;;;;;;;;;5054209;28;20021;-66
2022/01/15 01:32:41;;;;;;;12.35;4.68;;;;;;;;;;5055405;28;20483;-66
2022/01/15 01:35:15;;;;;;;9.80;5.05;;;;;;;;;;5055289;28;20033;-67
2022/01/15 01:37:50;;;;;;;7.90;3.08;;;;;;;;;;5055181;28;20025;-67
2022/01/15 01:40:22;;;;;;;15.63;4.32;;;;;;;;;;5055169;28;20033;-66
2022/01/15 01:45:49;;;;;;;11.48;4.13;;;;;;;;;;5013419;28;20068;-66
2022/01/15 01:48:16;;;;;;;6.38;1.90;;;;;;;;;;5013635;28;20026;-65
2022/01/15 01:50:43;;;;;;;10.20;2.55;;;;;;;;;;5013404;28;20103;-66
2022/01/15 01:53:09;;;;;;;12.57;3.53;;;;;;;;;;5001058;28;20022;-66
2022/01/15 01:55:37;;;;;;;45.33;5.32;;;;;;;;;;5017403;28;20370;-66
2022/01/15 01:58:05;;;;;;;27.60;3.60;;;;;;;;;;5017136;28;20489;-65
2022/01/15 02:00:33;;;;;;;42.50;3.38;;;;;;;;;;5017101;28;20111;-68
2022/01/15 02:03:01;;;;;;;6.07;2.50;;;;;;;;;;5017367;28;20038;-65
2022/01/15 02:05:28;;;;;;;11.18;2.95;;;;;;;;;;5017400;28;20034;-67
2022/01/15 02:07:56;;;;;;;9.20;2.72;;;;;;;;;;5017407;28;20038;-66
2022/01/15 02:10:23;;;;;;;6.93;2.58;;;;;;;;;;5017390;28;20045;-66
2022/01/15 02:12:51;;;;;;;7.97;2.17;;;;;;;;;;5017227;28;20022;-68
2022/01/15 02:15:20;;;;;;;10.50;2.63;;;;;;;;;;5017107;28;20046;-67
2022/01/15 02:17:49;;;;;;;19.85;4.55;;;;;;;;;;5017417;28;20431;-67
2022/01/15 02:25:56;;;;;;;6.55;2.50;;;;;;;;;;5058592;28;20048;-67
2022/01/15 02:28:27;;;;;;;9.90;3.75;;;;;;;;;;5058429;28;20090;-65
2022/01/15 02:30:56;;;;;;;7.93;2.70;;;;;;;;;;5058491;28;20044;-66
2022/01/15 02:33:24;;;;;;;7.85;2.60;;;;;;;;;;5058525;28;20017;-66
2022/01/15 02:35:52;;;;;;;12.60;2.30;;;;;;;;;;5058125;28;20033;-66
2022/01/15 02:38:20;;;;;;;8.57;1.88;;;;;;;;;;5058322;28;20144;-66
2022/01/15 02:40:47;;;;;;;7.30;1.75;;;;;;;;;;5058170;28;20100;-67
2022/01/15 02:43:18;;;;;;;11.18;2.42;;;;;;;;;;5058256;28;20032;-66
2022/01/15 02:45:55;;;;;;;12.35;2.50;;;;;;;;;;5058113;28;20028;-67
2022/01/15 02:48:24;;;;;;;7.88;2.47;;;;;;;;;;5058008;28;20025;-66
2022/01/15 02:50:50;;;;;;;11.52;3.17;;;;;;;;;;5057956;28;20076;-67
2022/01/15 02:53:16;;;;;;;17.98;6.50;;;;;;;;;;5058255;28;20100;-66
2022/01/15 02:55:45;;;;;;;18.15;6.25;;;;;;;;;;5056855;28;20379;-66
2022/01/15 02:58:13;;;;;;;17.67;7.63;;;;;;;;;;5057706;28;20048;-66
2022/01/15 03:00:41;;;;;;;19.40;9.45;;;;;;;;;;5057794;28;20100;-67
2022/01/15 03:03:09;;;;;;;27.83;8.98;;;;;;;;;;5057060;28;20426;-67
2022/01/15 03:05:37;;;;;;;18.17;8.88;;;;;;;;;;5057740;28;20047;-67
2022/01/15 03:08:04;;;;;;;39.25;11.32;;;;;;;;;;5057627;28;20025;-68
2022/01/15 03:10:32;;;;;;;44.00;18.55;;;;;;;;;;5057599;28;20025;-68
2022/01/15 03:13:01;;;;;;;51.03;20.10;;;;;;;;;;5057472;28;20365;-67
2022/01/15 03:15:31;;;;;;;37.10;11.95;;;;;;;;;;5057181;28;20025;-67
2022/01/15 03:17:59;;;;;;;27.38;11.30;;;;;;;;;;5057373;28;20052;-67
2022/01/15 03:20:26;;;;;;;48.20;18.48;;;;;;;;;;5057442;28;20433;-67
2022/01/15 03:22:57;;;;;;;59.63;22.08;;;;;;;;;;5057295;28;20029;-68
2022/01/15 03:25:24;;;;;;;58.95;23.20;;;;;;;;;;5057522;28;20029;-67
2022/01/15 03:27:52;;;;;;;69.97;30.33;;;;;;;;;;5057259;28;20418;-66
2022/01/15 03:30:19;;;;;;;43.08;18.95;;;;;;;;;;5057424;28;20057;-68
2022/01/15 03:32:47;;;;;;;58.10;31.83;;;;;;;;;;5056157;28;20031;-67
2022/01/15 03:35:18;;;;;;;59.13;26.23;;;;;;;;;;5057314;28;20031;-68
2022/01/15 03:37:46;;;;;;;64.03;25.27;;;;;;;;;;5057328;28;20049;-68
2022/01/15 03:40:15;;;;;;;76.18;26.98;;;;;;;;;;5057458;28;20029;-68
2022/01/15 03:42:43;;;;;;;64.90;24.10;;;;;;;;;;5057233;28;20029;-68
2022/01/15 03:45:11;;;;;;;58.53;22.52;;;;;;;;;;5057189;28;20048;-68
2022/01/15 03:47:39;;;;;;;53.63;23.75;;;;;;;;;;5057242;28;20025;-68
2022/01/15 03:50:07;;;;;;;57.33;22.65;;;;;;;;;;5057202;28;20457;-68
2022/01/15 03:52:35;;;;;;;47.13;22.77;;;;;;;;;;5056805;28;20049;-67
2022/01/15 03:55:04;;;;;;;47.72;20.33;;;;;;;;;;5056946;28;20043;-69
2022/01/15 03:57:32;;;;;;;49.15;24.15;;;;;;;;;;5055951;28;20033;-67
2022/01/15 04:00:00;;;;;;;139.30;73.55;;;;;;;;;;5057039;28;20024;-68
2022/01/15 04:02:28;;;;;;;62.72;30.75;;;;;;;;;;5056936;28;20381;-68
2022/01/15 04:04:56;;;;;;;58.90;24.77;;;;;;;;;;5056910;28;20025;-68
2022/01/15 04:07:23;;;;;;;48.28;22.00;;;;;;;;;;5056990;28;20017;-68
2022/01/15 04:09:51;;;;;;;49.42;21.83;;;;;;;;;;5056585;28;20119;-69
2022/01/15 04:12:18;;;;;;;42.28;20.00;;;;;;;;;;5056866;28;20450;-68
2022/01/15 04:14:46;;;;;;;45.83;21.55;;;;;;;;;;5055814;28;20070;-68
2022/01/15 04:17:14;;;;;;;45.30;20.27;;;;;;;;;;5056798;28;20033;-68
2022/01/15 04:19:41;;;;;;;63.20;30.05;;;;;;;;;;5055471;28;20064;-68
2022/01/15 04:22:09;;;;;;;74.15;37.47;;;;;;;;;;5056488;28;20082;-68
2022/01/15 04:24:36;;;;;;;165.90;79.55;;;;;;;;;;5056636;28;20035;-68
2022/01/15 04:27:04;;;;;;;295.92;138.57;;;;;;;;;;5056652;28;20100;-67
2022/01/15 04:29:34;;;;;;;410.00;188.07;;;;;;;;;;5055416;28;20028;-69
2022/01/15 04:32:02;;;;;;;205.20;103.13;;;;;;;;;;5056650;28;20028;-68
2022/01/15 04:34:31;;;;;;;81.75;38.58;;;;;;;;;;5056422;28;20036;-68
2022/01/15 04:37:15;;;;;;;78.18;38.05;;;;;;;;;;5054933;28;20078;-68
2022/01/15 04:39:42;;;;;;;81.25;37.17;;;;;;;;;;5056641;28;20021;-68
2022/01/15 04:42:15;;;;;;;168.63;44.58;;;;;;;;;;5056437;28;20088;-67
2022/01/15 04:44:43;;;;;;;110.40;53.95;;;;;;;;;;5055569;28;20109;-70
2022/01/15 04:47:11;;;;;;;110.80;57.78;;;;;;;;;;5055882;28;20438;-68
2022/01/15 04:49:38;;;;;;;73.82;34.15;;;;;;;;;;5056069;28;20035;-67
2022/01/15 04:52:07;;;;;;;45.92;21.48;;;;;;;;;;5055933;28;20044;-68
2022/01/15 04:54:35;;;;;;;39.00;14.80;;;;;;;;;;5054917;28;20095;-69
2022/01/15 04:57:02;;;;;;;32.88;12.00;;;;;;;;;;5055654;28;20025;-68
2022/01/15 04:59:30;;;;;;;28.98;13.82;;;;;;;;;;5054763;28;20061;-67
2022/01/15 05:01:58;;;;;;;33.38;14.20;;;;;;;;;;5056205;28;20032;-69
2022/01/15 05:04:25;;;;;;;34.70;15.15;;;;;;;;;;5056363;28;20056;-71
2022/01/15 05:06:53;;;;;;;31.27;13.43;;;;;;;;;;5057819;28;20069;-68
2022/01/15 05:09:20;;;;;;;28.85;12.98;;;;;;;;;;5055963;28;20087;-68
2022/01/15 05:12:05;;;;;;;33.60;15.27;;;;;;;;;;5055521;28;20033;-68
2022/01/15 05:14:33;;;;;;;84.30;38.92;;;;;;;;;;5057397;28;20032;-68
2022/01/15 05:17:02;;;;;;;85.50;39.20;;;;;;;;;;5056582;28;20037;-68
2022/01/15 05:19:33;;;;;;;76.43;36.85;;;;;;;;;;5055849;28;20352;-67
2022/01/15 05:22:09;;;;;;;86.88;39.88;;;;;;;;;;5055945;28;20139;-68
2022/01/15 05:24:37;;;;;;;81.63;36.55;;;;;;;;;;5054558;28;20028;-68
2022/01/15 05:27:05;;;;;;;90.93;40.38;;;;;;;;;;5056198;28;20033;-69
2022/01/15 05:29:33;;;;;;;110.15;45.50;;;;;;;;;;5055969;28;20025;-68
2022/01/15 05:32:00;;;;;;;136.30;55.60;;;;;;;;;;5033515;28;20041;-68
2022/01/15 05:34:28;;;;;;;154.45;68.22;;;;;;;;;;5034114;28;20025;-69
2022/01/15 05:36:55;;;;;;;91.07;40.75;;;;;;;;;;5017087;28;20104;-69
2022/01/15 05:39:22;;;;;;;73.25;34.67;;;;;;;;;;5033855;28;20044;-66
2022/01/15 05:41:50;;;;;;;75.30;35.13;;;;;;;;;;5033786;28;20044;-69
2022/01/15 05:44:18;;;;;;;73.32;36.55;;;;;;;;;;5033776;28;20029;-68
2022/01/15 05:46:46;;;;;;;80.38;36.88;;;;;;;;;;5033529;28;20033;-68
2022/01/15 05:49:13;;;;;;;74.32;33.30;;;;;;;;;;5016973;28;20155;-67
2022/01/15 05:51:40;;;;;;;88.20;36.78;;;;;;;;;;5033046;28;20084;-68
2022/01/15 05:54:10;;;;;;;79.82;37.05;;;;;;;;;;5033342;28;20044;-69
2022/01/15 05:56:39;;;;;;;84.50;37.40;;;;;;;;;;5034828;28;20602;-68
2022/01/15 05:59:07;;;;;;;121.53;40.90;;;;;;;;;;5033394;28;20034;-70
2022/01/15 06:01:35;;;;;;;132.02;55.95;;;;;;;;;;5033622;28;20120;-68
2022/01/15 06:04:04;;;;;;;155.25;65.75;;;;;;;;;;5034272;28;20131;-68
2022/01/15 06:06:32;;;;;;;138.57;54.38;;;;;;;;;;5033510;28;20337;-67
2022/01/15 06:09:00;;;;;;;118.07;42.70;;;;;;;;;;5033972;28;20036;-69
2022/01/15 06:11:28;;;;;;;99.05;42.25;;;;;;;;;;5034021;28;20033;-68
2022/01/15 06:13:56;;;;;;;82.35;36.70;;;;;;;;;;5033404;28;20428;-69
2022/01/15 06:16:23;;;;;;;86.95;38.20;;;;;;;;;;5049344;28;20041;-68
2022/01/15 06:18:51;;;;;;;109.70;46.13;;;;;;;;;;5055298;28;20029;-69
2022/01/15 06:21:19;;;;;;;92.50;39.75;;;;;;;;;;5054218;28;20112;-69
2022/01/15 06:23:50;;;;;;;93.97;41.47;;;;;;;;;;5055021;28;20025;-68
2022/01/15 06:26:18;;;;;;;87.22;38.15;;;;;;;;;;5055076;28;20029;-69
2022/01/15 06:28:45;;;;;;;82.88;38.78;;;;;;;;;;5055626;28;20027;-69
2022/01/15 06:31:15;;;;;;;81.55;36.05;;;;;;;;;;5055157;28;20033;-69
2022/01/15 06:33:43;;;;;;;86.40;40.10;;;;;;;;;;5054992;28;20025;-69
2022/01/15 06:36:13;;;;;;;105.07;50.10;;;;;;;;;;5054595;28;20029;-69
2022/01/15 06:38:43;;;;;;;134.55;67.93;;;;;;;;;;5056699;28;20333;-69
2022/01/15 06:41:11;;;;;;;101.95;48.67;;;;;;;;;;5058354;28;20099;-68
2022/01/15 06:43:39;;;;;;;114.43;60.50;;;;;;;;;;5058498;28;20036;-69
2022/01/15 06:46:06;;;;;;;128.68;54.05;;;;;;;;;;5058252;28;20029;-70
2022/01/15 06:48:37;;;;;;;139.45;65.20;;;;;;;;;;5058344;28;20067;-69
2022/01/15 06:51:04;;;;;;;132.85;61.97;;;;;;;;;;5057752;28;20112;-69
2022/01/15 06:53:30;;;;;;;130.80;66.68;;;;;;;;;;5059296;28;20063;-70
2022/01/15 06:55:57;;;;;;;133.70;61.03;;;;;;;;;;5057085;28;20025;-69
2022/01/15 06:58:30;;;;;;;145.23;68.03;;;;;;;;;;5058586;28;20055;-69
2022/01/15 07:00:57;;;;;;;130.57;61.78;;;;;;;;;;5058135;28;20453;-70
2022/01/15 07:03:25;;;;;;;140.20;67.72;;;;;;;;;;5056740;28;20306;-69
2022/01/15 07:05:52;;;;;;;148.77;68.28;;;;;;;;;;5056691;28;20029;-68
2022/01/15 07:08:20;;;;;;;159.43;82.15;;;;;;;;;;5058888;28;20382;-70
2022/01/15 07:10:48;;;;;;;186.68;91.10;;;;;;;;;;5058447;28;20025;-68
2022/01/15 07:13:19;;;;;;;160.63;78.95;;;;;;;;;;5058668;28;20025;-69
2022/01/15 07:15:48;;;;;;;143.57;68.80;;;;;;;;;;5058557;28;20021;-68
2022/01/15 07:18:18;;;;;;;134.95;68.10;;;;;;;;;;5057664;28;20044;-68
2022/01/15 07:20:45;;;;;;;114.88;53.55;;;;;;;;;;5058391;28;20079;-68
2022/01/15 07:23:15;;;;;;;66.22;30.08;;;;;;;;;;5060048;28;20048;-69
2022/01/15 07:25:42;;;;;;;57.97;27.52;;;;;;;;;;5059243;28;20433;-71
2022/01/15 07:28:10;;;;;;;52.17;23.58;;;;;;;;;;5059012;28;20381;-68
2022/01/15 07:30:41;;;;;;;47.47;24.35;;;;;;;;;;5056641;28;20021;-69
2022/01/15 07:33:11;;;;;;;49.88;21.38;;;;;;;;;;5057605;28;20021;-68
2022/01/15 07:35:39;;;;;;;41.25;18.90;;;;;;;;;;5057399;28;20029;-67
2022/01/15 07:38:06;;;;;;;42.80;18.45;;;;;;;;;;5057435;28;20036;-68
2022/01/15 07:40:34;;;;;;;48.70;17.40;;;;;;;;;;5057314;28;20323;-66
2022/01/15 07:43:02;;;;;;;43.03;18.20;;;;;;;;;;5056208;28;20032;-67
2022/01/15 07:45:29;;;;;;;40.80;18.40;;;;;;;;;;5057090;28;20107;-68
2022/01/15 07:47:57;;;;;;;37.45;17.65;;;;;;;;;;5057067;28;20096;-67
2022/01/15 07:50:26;;;;;;;39.20;16.45;;;;;;;;;;5056967;28;20279;-66
2022/01/15 07:52:57;;;;;;;33.30;13.18;;;;;;;;;;5057711;28;20021;-68
2022/01/15 07:55:25;;;;;;;38.25;14.23;;;;;;;;;;5056961;28;20031;-68
2022/01/15 07:57:55;;;;;;;38.60;13.32;;;;;;;;;;5057676;28;20036;-68
2022/01/15 08:00:22;;;;;;;35.33;14.02;;;;;;;;;;5060458;28;20032;-70
2022/01/15 08:02:50;;;;;;;46.80;13.93;;;;;;;;;;5057284;28;20036;-69
2022/01/15 08:05:17;;;;;;;44.45;15.10;;;;;;;;;;5058708;28;20029;-69
2022/01/15 08:07:45;;;;;;;43.45;17.92;;;;;;;;;;5056924;28;20140;-69
2022/01/15 08:10:13;;;;;;;64.47;22.45;;;;;;;;;;5056018;28;20031;-69
2022/01/15 08:12:48;;;;;;;63.50;26.23;;;;;;;;;;5056827;28;20369;-69
2022/01/15 08:15:17;;;;;;;64.85;24.33;;;;;;;;;;5055524;28;20385;-68
2022/01/15 08:17:45;;;;;;;53.83;22.45;;;;;;;;;;5056657;28;20025;-69
2022/01/15 08:20:13;;;;;;;65.47;23.17;;;;;;;;;;5056601;28;20021;-69
2022/01/15 08:22:42;;;;;;;50.40;21.80;;;;;;;;;;5055647;28;20029;-68
2022/01/15 08:25:10;;;;;;;70.80;22.20;;;;;;;;;;5056415;28;20049;-70
2022/01/15 08:27:38;;;;;;;51.10;21.52;;;;;;;;;;5056465;28;20055;-69
2022/01/15 08:30:09;;;;;;;56.58;21.95;;;;;;;;;;5055332;28;20025;-70
2022/01/15 08:32:37;;;;;;;50.58;20.60;;;;;;;;;;5056782;28;20024;-68
2022/01/15 08:35:08;;;;;;;43.00;20.35;;;;;;;;;;5056298;28;20017;-68
2022/01/15 08:37:39;;;;;;;54.50;20.42;;;;;;;;;;5056328;28;20417;-69
2022/01/15 08:40:08;;;;;;;61.25;19.10;;;;;;;;;;5056384;28;20037;-67
2022/01/15 08:42:37;;;;;;;45.47;16.00;;;;;;;;;;5056242;28;20051;-69
2022/01/15 08:45:06;;;;;;;49.60;16.45;;;;;;;;;;5056318;28;20028;-69
2022/01/15 08:47:34;;;;;;;51.08;15.50;;;;;;;;;;5056252;28;20027;-69
2022/01/15 08:50:02;;;;;;;36.75;14.07;;;;;;;;;;5056052;28;20021;-68
2022/01/15 08:52:29;;;;;;;37.03;15.23;;;;;;;;;;5055874;28;20068;-68
2022/01/15 08:54:57;;;;;;;38.95;14.73;;;;;;;;;;5054658;28;20326;-69
2022/01/15 08:57:25;;;;;;;41.13;16.20;;;;;;;;;;5055740;28;20070;-68
2022/01/15 08:59:53;;;;;;;38.72;15.70;;;;;;;;;;5054218;28;20431;-69
2022/01/15 09:02:21;;;;;;;45.60;16.27;;;;;;;;;;5055835;28;20241;-69
2022/01/15 09:04:49;;;;;;;44.92;16.65;;;;;;;;;;5055274;28;20028;-69
2022/01/15 09:07:16;;;;;;;280.17;26.17;;;;;;;;;;5056363;28;20079;-70
2022/01/15 09:09:44;;;;;;;56.25;16.45;;;;;;;;;;5055881;28;20290;-69
2022/01/15 09:12:11;;;;;;;48.83;16.08;;;;;;;;;;5055817;28;20021;-68
2022/01/15 09:14:39;;;;;;;34.78;12.65;;;;;;;;;;5055693;28;20025;-70
2022/01/15 09:17:07;;;;;;;31.65;13.18;;;;;;;;;;5055577;28;20060;-69
2022/01/15 09:19:35;;;;;;;26.17;12.85;;;;;;;;;;5055512;28;20053;-68
2022/01/15 09:22:06;;;;;;;29.02;12.60;;;;;;;;;;5055677;28;20036;-68
2022/01/15 09:24:33;;;;;;;25.70;10.43;;;;;;;;;;5056170;28;20028;-68
2022/01/15 09:30:11;;;;;;;30.10;9.50;;;;;;;;;;5056451;28;20029;-67
2022/01/15 09:32:34;;;;;;;25.80;7.28;;;;;;;;;;5056083;28;20036;-68
2022/01/15 09:35:03;;;;;;;23.10;7.60;;;;;;;;;;5055222;28;20330;-68
2022/01/15 09:37:30;;;;;;;26.85;7.72;;;;;;;;;;5055249;28;20075;-70
2022/01/15 09:39:58;;;;;;;23.63;7.10;;;;;;;;;;5055598;28;20029;-68
2022/01/15 09:42:26;;;;;;;28.40;7.45;;;;;;;;;;5054232;28;20025;-67
2022/01/15 09:44:57;;;;;;;27.85;7.63;;;;;;;;;;5053945;28;20036;-68
2022/01/15 09:47:25;;;;;;;28.58;6.93;;;;;;;;;;5055184;28;20449;-67
2022/01/15 09:49:57;;;;;;;20.88;7.30;;;;;;;;;;5055687;28;20033;-67
2022/01/15 09:52:24;;;;;;;25.23;8.23;;;;;;;;;;5055464;28;20144;-67
2022/01/15 09:54:53;;;;;;;17.45;7.25;;;;;;;;;;5055477;28;20107;-67
2022/01/15 09:57:20;;;;;;;20.63;7.28;;;;;;;;;;5055570;28;20029;-67
2022/01/15 09:59:47;;;;;;;24.50;8.40;;;;;;;;;;5053806;28;20036;-69
2022/01/15 10:02:16;;;;;;;16.58;6.75;;;;;;;;;;5053726;28;20025;-69
2022/01/15 10:04:43;;;;;;;18.77;7.38;;;;;;;;;;5054860;28;20108;-69
2022/01/15 10:07:22;;;;;;;20.25;6.80;;;;;;;;;;5055090;28;20025;-70
2022/01/15 10:09:51;;;;;;;24.88;8.57;;;;;;;;;;5055024;28;20075;-68
2022/01/15 10:12:27;;;;;;;26.20;8.18;;;;;;;;;;5055897;28;20074;-69
2022/01/15 10:15:00;;;;;;;18.98;8.20;;;;;;;;;;5058561;28;20021;-71
2022/01/15 10:17:33;;;;;;;25.85;8.80;;;;;;;;;;5058526;28;20021;-69
2022/01/15 10:20:01;;;;;;;26.85;8.75;;;;;;;;;;5058842;28;20082;-69
2022/01/15 10:22:31;;;;;;;28.42;9.73;;;;;;;;;;5059131;28;20100;-68
2022/01/15 10:25:18;;;;;;;25.55;9.13;;;;;;;;;;5057989;28;20318;-69
2022/01/15 10:27:47;;;;;;;28.63;9.65;;;;;;;;;;5059295;28;20021;-69
2022/01/15 10:30:30;;;;;;;31.30;9.98;;;;;;;;;;5057367;28;20017;-69
2022/01/15 10:33:09;;;;;;;31.58;9.20;;;;;;;;;;5058452;28;20071;-68
2022/01/15 10:35:39;;;;;;;36.28;10.90;;;;;;;;;;5058462;28;20040;-70
2022/01/15 10:38:44;;;;;;;34.88;11.30;;;;;;;;;;5058374;28;20309;-69
2022/01/15 10:41:05;;;;;;;34.28;10.77;;;;;;;;;;5056269;28;20079;-68
2022/01/15 10:43:35;;;;;;;36.58;12.23;;;;;;;;;;5058543;28;20025;-67
2022/01/15 10:46:03;;;;;;;41.25;11.82;;;;;;;;;;5058302;28;20028;-69
2022/01/15 10:48:38;;;;;;;34.10;10.93;;;;;;;;;;5058227;28;20029;-70
2022/01/15 10:51:05;;;;;;;28.60;11.40;;;;;;;;;;5056862;28;20048;-69
2022/01/15 10:53:39;;;;;;;32.97;11.75;;;;;;;;;;5058238;28;20072;-70
2022/01/15 10:56:08;;;;;;;37.55;11.38;;;;;;;;;;5058380;28;20029;-68
2022/01/15 10:58:37;;;;;;;31.48;11.65;;;;;;;;;;5058297;28;20025;-68
2022/01/15 11:01:05;;;;;;;27.73;9.80;;;;;;;;;;5058355;28;20048;-69
2022/01/15 11:03:41;;;;;;;31.23;9.80;;;;;;;;;;5058221;28;20089;-69
2022/01/15 11:06:08;;;;;;;30.88;10.98;;;;;;;;;;5059579;28;20123;-70
2022/01/15 11:08:37;;;;;;;27.95;11.77;;;;;;;;;;5057067;28;20028;-69
2022/01/15 11:11:14;;;;;;;34.55;11.88;;;;;;;;;;5058114;28;20051;-69
2022/01/15 11:13:43;;;;;;;35.25;12.02;;;;;;;;;;5056883;28;20029;-69
2022/01/15 11:16:21;;;;;;;29.88;11.30;;;;;;;;;;5058026;28;20033;-69
2022/01/15 11:18:50;;;;;;;37.92;12.45;;;;;;;;;;5057085;28;20303;-69
2022/01/15 11:21:18;;;;;;;38.08;14.35;;;;;;;;;;5058037;28;20025;-69
2022/01/15 11:23:46;;;;;;;42.13;15.90;;;;;;;;;;5057295;28;20469;-71
2022/01/15 11:26:15;;;;;;;43.42;16.25;;;;;;;;;;5056468;28;20124;-70
2022/01/15 11:28:43;;;;;;;47.70;17.38;;;;;;;;;;5057675;28;20021;-70
2022/01/15 11:31:30;;;;;;;45.08;15.05;;;;;;;;;;5057720;28;20024;-69
2022/01/15 11:33:59;;;;;;;47.05;15.30;;;;;;;;;;5057599;28;20299;-68
2022/01/15 11:36:43;;;;;;;44.90;14.93;;;;;;;;;;5058067;28;20104;-68
2022/01/15 11:39:12;;;;;;;52.35;17.05;;;;;;;;;;5058484;28;20422;-68
2022/01/15 11:41:49;;;;;;;45.55;13.50;;;;;;;;;;5057657;28;20456;-69
2022/01/15 11:44:38;;;;;;;47.40;14.65;;;;;;;;;;5057483;28;20021;-68
2022/01/15 11:47:25;;;;;;;53.90;13.65;;;;;;;;;;5057504;28;20029;-70
2022/01/15 11:49:59;;;;;;;59.95;14.75;;;;;;;;;;5057362;28;20029;-69
2022/01/15 11:52:28;;;;;;;38.55;12.10;;;;;;;;;;5056196;28;20154;-69
2022/01/15 11:55:03;;;;;;;44.20;13.65;;;;;;;;;;5057338;28;20033;-69
2022/01/15 11:57:37;;;;;;;53.45;15.38;;;;;;;;;;5057468;28;20155;-68
2022/01/15 12:00:17;;;;;;;46.08;11.88;;;;;;;;;;5057198;28;20031;-68
2022/01/15 12:02:57;;;;;;;46.83;12.52;;;;;;;;;;5057142;28;20021;-69
2022/01/15 12:05:27;;;;;;;46.10;12.93;;;;;;;;;;5056895;28;20033;-69
2022/01/15 12:08:02;;;;;;;46.80;11.13;;;;;;;;;;5057360;28;20430;-70
2022/01/15 12:10:45;;;;;;;47.63;10.80;;;;;;;;;;5056740;28;20100;-70
2022/01/15 12:13:20;;;;;;;51.55;11.90;;;;;;;;;;5056743;28;20021;-69
2022/01/15 12:16:11;;;;;;;57.67;17.15;;;;;;;;;;5056666;28;20067;-70
2022/01/15 12:18:48;;;;;;;64.55;18.95;;;;;;;;;;4975951;28;20049;-69
2022/01/15 12:21:34;;;;;;;53.45;19.38;;;;;;;;;;4959785;28;20050;-69
2022/01/15 12:24:22;;;;;;;60.45;18.02;;;;;;;;;;4975852;28;20101;-69
2022/01/15 12:27:02;;;;;;;78.57;20.63;;;;;;;;;;4918545;29;20044;-69
2022/01/15 12:29:29;;;;;;;55.00;21.45;;;;;;;;;;4902895;29;20058;-69
2022/01/15 12:31:57;;;;;;;67.35;22.27;;;;;;;;;;4918431;29;20096;-69
2022/01/15 12:34:25;;;;;;;69.65;22.08;;;;;;;;;;4902023;29;20108;-69
2022/01/15 12:36:56;;;;;;;64.63;22.77;;;;;;;;;;4902208;29;20123;-70
2022/01/15 12:39:36;;;;;;;83.85;26.83;;;;;;;;;;4918108;29;20111;-68
2022/01/15 12:42:08;;;;;;;71.45;27.27;;;;;;;;;;4918492;29;20041;-68
2022/01/15 12:44:45;;;;;;;74.15;27.45;;;;;;;;;;4917957;29;20373;-70
2022/01/15 12:47:17;;;;;;;76.93;25.55;;;;;;;;;;4918245;29;20433;-69
2022/01/15 12:49:45;;;;;;;61.00;22.95;;;;;;;;;;4917838;29;20036;-68
2022/01/15 12:52:16;;;;;;;66.90;21.95;;;;;;;;;;4917861;29;20493;-69
2022/01/15 12:54:46;;;;;;;79.22;23.52;;;;;;;;;;4925834;28;20077;-68
2022/01/15 12:57:15;;;;;;;68.20;23.75;;;;;;;;;;4959370;28;20069;-68
2022/01/15 12:59:42;;;;;;;80.53;25.30;;;;;;;;;;4975483;28;20383;-69
2022/01/15 13:02:10;;;;;;;76.82;24.73;;;;;;;;;;4975288;28;20078;-68
2022/01/15 13:04:37;;;;;;;77.13;27.00;;;;;;;;;;5040219;28;20434;-68
2022/01/15 13:07:05;;;;;;;89.68;31.52;;;;;;;;;;5054738;28;20032;-69
2022/01/15 13:09:44;;;;;;;93.07;34.03;;;;;;;;;;5055589;28;20044;-68
2022/01/15 13:12:11;;;;;;;94.65;34.38;;;;;;;;;;5055694;28;20025;-69
2022/01/15 13:14:40;;;;;;;91.13;34.20;;;;;;;;;;5055654;28;20071;-69
2022/01/15 13:17:28;;;;;;;95.55;36.22;;;;;;;;;;5055989;28;20092;-68
2022/01/15 13:19:56;;;;;;;94.20;37.42;;;;;;;;;;5055594;28;20105;-70
2022/01/15 13:22:24;;;;;;;90.45;35.55;;;;;;;;;;5055631;28;20025;-69
2022/01/15 13:25:08;;;;;;;110.63;41.13;;;;;;;;;;5055532;28;20025;-67
2022/01/15 13:27:35;;;;;;;103.15;41.50;;;;;;;;;;5055654;28;20025;-68
2022/01/15 13:30:04;;;;;;;110.78;41.17;;;;;;;;;;5055970;28;20028;-67
2022/01/15 13:32:32;;;;;;;109.30;39.53;;;;;;;;;;5055382;28;20025;-67
2022/01/15 13:35:10;;;;;;;222.93;91.15;;;;;;;;;;5058161;28;20090;-67
2022/01/15 13:37:50;;;;;;;233.85;106.22;;;;;;;;;;5056959;28;20021;-68
2022/01/15 13:40:31;;;;;;;248.13;111.53;;;;;;;;;;5055412;28;20040;-68
2022/01/15 13:43:02;;;;;;;229.30;102.32;;;;;;;;;;5056818;28;20025;-69
2022/01/15 13:45:34;;;;;;;219.63;97.10;;;;;;;;;;5056812;28;20414;-70
2022/01/15 13:48:08;;;;;;;211.35;93.70;;;;;;;;;;5060692;28;20040;-69
2022/01/15 13:53:31;;;;;;;217.75;97.80;;;;;;;;;;5060552;28;20028;-68
2022/01/15 13:56:19;;;;;;;207.75;97.80;;;;;;;;;;5060760;28;20049;-68
2022/01/15 13:58:48;;;;;;;228.93;106.05;;;;;;;;;;5059313;28;20055;-67
2022/01/15 14:01:35;;;;;;;226.13;109.43;;;;;;;;;;5058499;28;20027;-69
2022/01/15 14:04:21;;;;;;;218.13;105.75;;;;;;;;;;5066020;28;20025;-71
2022/01/15 14:06:49;;;;;;;215.32;103.05;;;;;;;;;;5055304;28;20025;-69
2022/01/15 14:09:18;;;;;;;234.43;104.47;;;;;;;;;;5067755;28;20104;-70
2022/01/15 14:12:04;;;;;;;202.13;92.45;;;;;;;;;;5065638;28;20027;-69
2022/01/15 14:14:33;;;;;;;187.48;86.13;;;;;;;;;;5059990;28;20021;-68
2022/01/15 14:17:02;;;;;;;172.93;80.20;;;;;;;;;;5057941;28;20116;-69
2022/01/15 14:20:01;;;;;;;174.18;78.15;;;;;;;;;;5059353;28;20021;-70
2022/01/15 14:22:32;;;;;;;173.00;71.18;;;;;;;;;;5059095;28;20028;-70
2022/01/15 14:25:19;;;;;;;158.43;72.65;;;;;;;;;;5058974;28;20025;-69
2022/01/15 14:28:00;;;;;;;146.43;70.03;;;;;;;;;;5058241;28;20040;-68
2022/01/15 14:30:28;;;;;;;153.73;71.35;;;;;;;;;;5058260;28;20504;-69
2022/01/15 14:32:55;;;;;;;159.50;65.85;;;;;;;;;;5059214;28;20021;-69
2022/01/15 14:35:27;;;;;;;133.82;57.30;;;;;;;;;;5058553;28;20299;-68
2022/01/15 14:37:55;;;;;;;121.10;50.83;;;;;;;;;;5059120;28;20045;-69
2022/01/15 14:40:23;;;;;;;107.85;45.95;;;;;;;;;;5058749;28;20033;-69
2022/01/15 14:42:50;;;;;;;107.82;45.42;;;;;;;;;;5057991;28;20025;-68
2022/01/15 14:45:19;;;;;;;121.03;51.75;;;;;;;;;;5058556;28;20100;-68
2022/01/15 14:47:51;;;;;;;106.15;47.85;;;;;;;;;;5057848;28;20032;-68
2022/01/15 14:50:22;;;;;;;419.40;163.52;;;;;;;;;;5058356;28;20374;-70
2022/01/15 14:52:50;;;;;;;596.13;233.25;;;;;;;;;;5057150;28;20056;-68
2022/01/15 14:55:19;;;;;;;512.05;191.55;;;;;;;;;;5057038;28;20110;-68
2022/01/15 14:57:47;;;;;;;406.75;152.30;;;;;;;;;;5056433;28;20025;-69
2022/01/15 15:00:15;;;;;;;220.32;87.90;;;;;;;;;;5058215;28;20406;-69
2022/01/15 15:02:42;;;;;;;173.32;69.85;;;;;;;;;;5058569;28;20037;-67
2022/01/15 15:05:11;;;;;;;135.90;55.10;;;;;;;;;;5057000;28;20025;-69